Time;durP1;ratioP1;P1;durP2;ratioP2;P2;SDS_P1;SDS_P2;PMS_P1;PMS_P2;Temp;Humidity;BMP_temperature;BMP_pressure;BME280_temperature;BME280_humidity;BME280_pressure;Samples;Min_cycle;Max_cycle;Signal;HPM_P1;HPM_P2
2024/01/04 00:00:16;;;;;;;1.67;0.65;;;10.00;53.80;;;;;;20794;6838;117705;-74
2024/01/04 00:02:42;;;;;;;2.53;1.00;;;10.10;54.30;;;;;;20562;6838;297879;-75
2024/01/04 00:05:08;;;;;;;2.05;0.80;;;10.00;54.20;;;;;;20577;6838;307272;-75
2024/01/04 00:07:35;;;;;;;1.83;0.70;;;10.40;53.90;;;;;;20591;6838;279156;-75
2024/01/04 00:10:00;;;;;;;0.83;0.60;;;10.70;53.50;;;;;;20796;6838;120225;-76
2024/01/04 00:12:26;;;;;;;1.63;0.70;;;10.60;53.50;;;;;;20585;6838;308170;-76
2024/01/04 00:14:52;;;;;;;1.80;0.80;;;10.50;53.30;;;;;;20566;6838;336852;-75
2024/01/04 00:17:17;;;;;;;2.20;0.93;;;10.70;53.10;;;;;;20802;6838;120372;-75
2024/01/04 00:19:43;;;;;;;1.37;0.70;;;10.20;53.90;;;;;;20790;6838;120303;-75
2024/01/04 00:22:09;;;;;;;2.00;0.70;;;10.20;53.90;;;;;;20501;6865;306761;-75
2024/01/04 00:24:35;;;;;;;1.47;0.80;;;10.30;53.90;;;;;;20779;6838;119608;-75
2024/01/04 00:27:01;;;;;;;1.33;0.63;;;10.00;54.20;;;;;;20796;6838;117477;-75
2024/01/04 00:29:26;;;;;;;1.27;0.80;;;10.00;54.20;;;;;;20508;6865;291828;-75
2024/01/04 00:31:54;;;;;;;1.73;0.57;;;10.10;54.20;;;;;;20794;6836;117559;-75
2024/01/04 00:34:18;;;;;;;1.67;0.80;;;10.20;53.90;;;;;;20589;6837;280573;-75
2024/01/04 00:36:44;;;;;;;2.40;0.70;;;10.20;53.90;;;;;;20784;6838;129182;-76
2024/01/04 00:39:09;;;;;;;1.48;0.80;;;10.20;53.80;;;;;;20597;6838;292383;-75
2024/01/04 00:41:36;;;;;;;1.63;0.93;;;10.30;53.70;;;;;;20585;6838;339017;-76
2024/01/04 00:44:02;;;;;;;2.60;1.00;;;10.60;53.30;;;;;;20499;6865;308814;-75
2024/01/04 00:46:27;;;;;;;1.87;0.83;;;10.80;52.80;;;;;;20592;6838;278413;-75
2024/01/04 00:48:53;;;;;;;1.40;0.80;;;11.00;52.50;;;;;;20579;6838;277744;-75
2024/01/04 00:51:19;;;;;;;1.30;0.70;;;11.10;52.10;;;;;;20711;6865;119837;-75
2024/01/04 00:53:45;;;;;;;1.20;0.80;;;10.90;52.20;;;;;;20611;6838;306534;-75
2024/01/04 00:56:12;;;;;;;1.50;0.80;;;11.00;52.30;;;;;;20639;6838;307647;-75
2024/01/04 00:58:38;;;;;;;1.53;0.60;;;10.80;52.50;;;;;;20780;6838;117550;-75
2024/01/04 01:01:04;;;;;;;1.37;0.87;;;10.80;52.50;;;;;;20583;6838;307301;-75
2024/01/04 01:03:29;;;;;;;1.45;0.50;;;10.80;52.40;;;;;;20788;6838;117241;-75
2024/01/04 01:05:55;;;;;;;1.12;0.85;;;10.70;52.70;;;;;;20802;6838;117341;-75
2024/01/04 01:08:20;;;;;;;1.47;0.60;;;10.40;53.30;;;;;;20584;6838;310358;-75
2024/01/04 01:10:46;;;;;;;1.83;0.82;;;10.70;52.60;;;;;;20572;6838;307232;-76
2024/01/04 01:13:12;;;;;;;1.23;0.70;;;10.70;52.60;;;;;;20583;6838;306948;-75
2024/01/04 01:15:39;;;;;;;1.40;0.70;;;10.90;52.10;;;;;;20590;6838;304896;-76
2024/01/04 01:18:04;;;;;;;1.42;0.60;;;11.00;52.20;;;;;;20795;6838;117317;-75
2024/01/04 01:20:29;;;;;;;1.33;0.60;;;10.90;52.00;;;;;;20796;6838;117320;-75
2024/01/04 01:22:55;;;;;;;1.07;0.60;;;10.60;52.80;;;;;;20563;6838;309722;-76
2024/01/04 01:25:21;;;;;;;0.77;0.40;;;10.50;53.10;;;;;;20796;6838;119410;-81
2024/01/04 01:27:47;;;;;;;2.10;0.67;;;10.50;53.10;;;;;;20803;6838;117316;-76
2024/01/04 01:30:13;;;;;;;1.30;0.80;;;10.40;53.60;;;;;;20789;6838;119514;-75
2024/01/04 01:32:40;;;;;;;1.67;0.80;;;10.10;54.10;;;;;;20562;6838;308364;-78
2024/01/04 01:35:04;;;;;;;0.67;0.50;;;10.20;54.00;;;;;;20800;6838;117418;-77
2024/01/04 01:37:29;;;;;;;1.23;0.60;;;10.30;54.60;;;;;;20794;6838;119416;-75
2024/01/04 01:39:55;;;;;;;0.93;0.60;;;10.10;54.20;;;;;;20796;6838;119947;-75
2024/01/04 01:42:21;;;;;;;1.83;0.88;;;10.00;54.60;;;;;;20503;6865;334937;-74
2024/01/04 01:44:46;;;;;;;1.40;0.70;;;10.20;54.70;;;;;;20794;6836;120680;-75
2024/01/04 01:47:13;;;;;;;1.08;0.60;;;10.10;54.70;;;;;;20801;6837;119400;-75
2024/01/04 01:49:38;;;;;;;2.43;0.87;;;10.00;54.60;;;;;;20798;6838;117765;-75
2024/01/04 01:52:04;;;;;;;0.73;0.50;;;9.80;56.90;;;;;;20709;6865;117461;-75
2024/01/04 01:54:30;;;;;;;2.07;0.70;;;9.80;56.20;;;;;;20596;6838;277190;-75
2024/01/04 01:56:56;;;;;;;2.27;0.90;;;10.00;55.20;;;;;;20780;6838;120007;-75
2024/01/04 01:59:21;;;;;;;1.98;0.88;;;10.10;55.00;;;;;;20498;6865;338092;-75
2024/01/04 02:01:47;;;;;;;0.88;0.62;;;10.30;54.80;;;;;;20788;6838;117312;-75
2024/01/04 02:04:13;;;;;;;0.70;0.57;;;10.30;54.80;;;;;;20801;6838;117490;-75
2024/01/04 02:06:39;;;;;;;2.43;0.93;;;10.10;54.90;;;;;;20558;6838;278361;-75
2024/01/04 02:09:04;;;;;;;3.20;1.17;;;10.30;55.10;;;;;;20492;6865;308442;-75
2024/01/04 02:11:30;;;;;;;2.27;0.90;;;10.50;54.80;;;;;;20793;6838;121399;-74
2024/01/04 02:13:56;;;;;;;1.20;0.73;;;10.30;55.00;;;;;;20793;6838;120208;-74
2024/01/04 02:16:22;;;;;;;2.70;1.00;;;10.30;55.00;;;;;;20584;6838;331427;-74
2024/01/04 02:18:47;;;;;;;2.53;1.20;;;10.30;55.80;;;;;;20564;6838;278830;-74
2024/01/04 02:21:13;;;;;;;2.90;1.10;;;10.70;56.30;;;;;;20582;6838;337161;-74
2024/01/04 02:23:39;;;;;;;2.67;1.37;;;10.70;56.00;;;;;;20571;6838;307630;-74
2024/01/04 02:26:05;;;;;;;1.98;1.02;;;10.80;55.90;;;;;;20787;6838;117372;-74
2024/01/04 02:28:31;;;;;;;2.28;0.65;;;10.30;56.20;;;;;;20777;6838;117268;-74
2024/01/04 02:30:57;;;;;;;3.37;1.10;;;10.30;56.20;;;;;;20578;6838;325558;-74
2024/01/04 02:33:22;;;;;;;2.67;1.10;;;10.20;57.00;;;;;;20469;6865;309633;-75
2024/01/04 02:35:48;;;;;;;2.75;1.17;;;10.40;57.00;;;;;;20583;6838;309718;-74
2024/01/04 02:38:13;;;;;;;2.87;0.85;;;10.60;56.90;;;;;;20783;6838;116945;-74
2024/01/04 02:40:40;;;;;;;5.00;0.85;;;10.10;57.10;;;;;;20755;6838;120318;-74
2024/01/04 02:43:09;;;;;;;3.03;1.00;;;10.10;57.10;;;;;;20780;6838;117451;-74
2024/01/04 02:45:31;;;;;;;3.55;1.15;;;9.80;58.60;;;;;;20558;6838;308519;-74
2024/01/04 02:47:57;;;;;;;3.43;1.20;;;10.10;58.30;;;;;;20588;6838;308006;-74
2024/01/04 02:50:23;;;;;;;3.17;1.10;;;10.30;58.00;;;;;;20562;6838;336213;-74
2024/01/04 02:52:49;;;;;;;4.83;0.90;;;10.30;57.90;;;;;;20742;6838;146178;-75
2024/01/04 02:55:15;;;;;;;2.10;0.90;;;10.20;57.70;;;;;;20714;6863;120332;-74
2024/01/04 02:57:40;;;;;;;4.05;0.90;;;9.90;59.10;;;;;;20789;6837;117061;-74
2024/01/04 03:00:06;;;;;;;2.23;1.00;;;9.60;59.70;;;;;;20579;6838;295761;-73
2024/01/04 03:02:32;;;;;;;2.60;1.10;;;9.70;60.30;;;;;;20539;6838;309477;-75
2024/01/04 03:04:57;;;;;;;2.50;0.98;;;9.90;60.10;;;;;;20498;6865;281932;-74
2024/01/04 03:07:23;;;;;;;3.40;1.00;;;10.10;58.90;;;;;;20724;6865;121536;-74
2024/01/04 03:09:48;;;;;;;3.15;1.00;;;10.00;58.60;;;;;;20500;6865;340639;-74
2024/01/04 03:12:14;;;;;;;2.23;0.70;;;10.00;59.00;;;;;;20712;6865;118352;-74
2024/01/04 03:14:39;;;;;;;2.90;0.77;;;9.90;59.90;;;;;;20492;6865;283394;-74
2024/01/04 03:17:06;;;;;;;1.10;0.73;;;10.10;59.70;;;;;;20508;6865;288568;-74
2024/01/04 03:19:31;;;;;;;2.25;0.90;;;10.00;58.90;;;;;;20499;6865;337986;-76
2024/01/04 03:21:57;;;;;;;0.70;0.60;;;10.20;58.50;;;;;;20719;6865;119956;-74
2024/01/04 03:24:23;;;;;;;1.63;0.80;;;9.70;60.00;;;;;;20718;6865;120563;-74
2024/01/04 03:26:49;;;;;;;1.53;0.70;;;9.70;59.90;;;;;;20700;6865;119641;-75
2024/01/04 03:29:14;;;;;;;1.67;0.80;;;9.40;60.50;;;;;;20507;6865;308734;-75
2024/01/04 03:31:40;;;;;;;0.47;0.47;;;9.40;61.00;;;;;;20716;6865;116158;-74
2024/01/04 03:34:06;;;;;;;1.17;0.50;;;9.40;60.90;;;;;;20714;6865;117236;-75
2024/01/04 03:36:31;;;;;;;1.25;0.57;;;9.20;61.30;;;;;;20499;6865;307990;-75
2024/01/04 03:38:57;;;;;;;2.17;0.68;;;9.30;61.60;;;;;;20513;6865;324688;-75
2024/01/04 03:41:22;;;;;;;1.08;0.45;;;9.60;61.00;;;;;;20506;6865;279539;-75
2024/01/04 03:43:48;;;;;;;0.80;0.47;;;9.80;60.30;;;;;;20510;6865;279434;-75
2024/01/04 03:46:14;;;;;;;1.03;0.50;;;10.00;59.00;;;;;;20720;6865;120538;-74
2024/01/04 03:48:40;;;;;;;1.43;0.73;;;9.80;60.40;;;;;;20488;6865;301255;-75
2024/01/04 03:51:05;;;;;;;0.80;0.50;;;9.80;60.30;;;;;;20504;6865;278750;-75
2024/01/04 03:53:31;;;;;;;1.52;0.60;;;10.00;59.30;;;;;;20506;6865;278492;-75
2024/01/04 03:55:56;;;;;;;1.17;0.80;;;10.10;59.10;;;;;;20711;6865;119947;-75
2024/01/04 03:58:22;;;;;;;1.90;0.67;;;9.90;60.00;;;;;;20509;6865;307086;-75
2024/01/04 04:00:48;;;;;;;1.53;0.53;;;9.90;60.40;;;;;;20695;6865;118271;-75
2024/01/04 04:03:18;;;;;;;1.47;0.50;;;9.40;61.10;;;;;;20718;6865;118343;-75
2024/01/04 04:05:44;;;;;;;0.67;0.40;;;9.40;61.00;;;;;;20712;6865;119813;-75
2024/01/04 04:08:09;;;;;;;0.45;0.45;;;9.00;62.20;;;;;;20722;6864;120309;-75
2024/01/04 04:10:34;;;;;;;1.23;0.67;;;9.00;62.20;;;;;;20469;6865;294661;-75
2024/01/04 04:13:00;;;;;;;0.83;0.50;;;9.10;62.60;;;;;;20715;6865;117332;-75
2024/01/04 04:15:26;;;;;;;0.67;0.50;;;9.10;62.30;;;;;;20716;6865;117322;-75
2024/01/04 04:17:52;;;;;;;1.37;0.50;;;8.80;63.00;;;;;;20719;6865;118593;-75
2024/01/04 04:20:17;;;;;;;0.43;0.40;;;8.80;62.90;;;;;;20496;6865;279521;-75
2024/01/04 04:22:43;;;;;;;0.53;0.37;;;9.00;63.10;;;;;;20701;6865;119409;-75
2024/01/04 04:25:09;;;;;;;0.90;0.53;;;9.00;62.70;;;;;;20504;6865;315650;-77
2024/01/04 04:27:37;;;;;;;1.53;0.70;;;9.40;62.00;;;;;;20510;6865;311093;-75
2024/01/04 04:30:02;;;;;;;1.17;0.40;;;9.40;61.80;;;;;;20506;6865;311354;-78
2024/01/04 04:32:28;;;;;;;0.95;0.65;;;9.70;61.10;;;;;;20507;6865;280313;-74
2024/01/04 04:34:53;;;;;;;1.12;0.40;;;9.90;60.70;;;;;;20483;6865;308372;-75
2024/01/04 04:37:20;;;;;;;1.73;0.47;;;10.00;59.20;;;;;;20488;6865;279222;-75
2024/01/04 04:39:46;;;;;;;0.30;0.30;;;10.20;58.90;;;;;;20716;6865;117736;-75
2024/01/04 04:42:11;;;;;;;1.40;0.40;;;10.00;59.00;;;;;;20719;6865;117331;-74
2024/01/04 04:44:37;;;;;;;0.90;0.40;;;9.70;60.60;;;;;;20484;6865;338409;-75
2024/01/04 04:47:02;;;;;;;1.87;0.50;;;9.70;61.10;;;;;;20714;6865;117414;-75
2024/01/04 04:49:28;;;;;;;1.08;0.40;;;9.60;61.10;;;;;;20500;6865;321103;-74
2024/01/04 04:51:54;;;;;;;0.83;0.47;;;9.70;61.20;;;;;;20716;6865;119743;-73
2024/01/04 04:54:19;;;;;;;0.90;0.40;;;9.60;61.10;;;;;;20506;6865;279356;-75
2024/01/04 04:56:45;;;;;;;1.62;0.50;;;9.70;61.50;;;;;;20450;6865;320177;-75
2024/01/04 04:59:10;;;;;;;2.00;0.30;;;9.90;61.20;;;;;;20710;6865;117589;-75
2024/01/04 05:01:36;;;;;;;1.07;0.40;;;9.80;61.00;;;;;;20484;6865;308441;-74
2024/01/04 05:04:01;;;;;;;0.73;0.40;;;9.80;61.20;;;;;;20711;6865;118719;-75
2024/01/04 05:06:28;;;;;;;1.30;0.40;;;9.70;61.20;;;;;;20711;6865;120285;-75
2024/01/04 05:08:54;;;;;;;0.60;0.40;;;9.50;61.70;;;;;;20699;6865;122842;-75
2024/01/04 05:11:19;;;;;;;1.35;0.55;;;9.30;62.20;;;;;;20496;6865;308185;-76
2024/01/04 05:13:45;;;;;;;1.73;0.57;;;9.40;62.60;;;;;;20504;6865;280004;-75
2024/01/04 05:16:11;;;;;;;2.50;0.57;;;9.60;62.00;;;;;;20715;6865;119746;-75
2024/01/04 05:18:36;;;;;;;1.50;0.60;;;9.60;61.70;;;;;;20477;6863;316677;-75
2024/01/04 05:21:02;;;;;;;1.30;0.50;;;9.70;61.90;;;;;;20489;6865;337512;-75
2024/01/04 05:23:28;;;;;;;0.93;0.50;;;9.80;61.20;;;;;;20710;6865;117108;-75
2024/01/04 05:25:54;;;;;;;0.97;0.47;;;9.80;61.20;;;;;;20712;6865;117081;-74
2024/01/04 05:28:20;;;;;;;0.80;0.62;;;9.50;61.60;;;;;;20501;6865;280066;-75
2024/01/04 05:30:45;;;;;;;1.47;0.50;;;9.50;61.90;;;;;;20693;6865;120506;-75
2024/01/04 05:33:10;;;;;;;1.20;0.50;;;9.50;61.90;;;;;;20498;6865;322455;-75
2024/01/04 05:35:36;;;;;;;2.25;0.70;;;9.60;62.00;;;;;;20505;6865;312626;-75
2024/01/04 05:38:03;;;;;;;0.98;0.40;;;9.80;61.40;;;;;;20502;6865;308778;-75
2024/01/04 05:40:27;;;;;;;1.10;0.60;;;10.00;59.90;;;;;;20497;6865;310325;-75
2024/01/04 05:42:55;;;;;;;0.90;0.60;;;10.10;59.30;;;;;;20488;6865;307931;-75
2024/01/04 05:45:18;;;;;;;0.62;0.50;;;10.20;58.80;;;;;;20489;6865;336306;-74
2024/01/04 05:47:45;;;;;;;0.60;0.50;;;10.10;58.60;;;;;;20720;6865;119925;-75
2024/01/04 05:50:10;;;;;;;0.37;0.37;;;10.10;58.60;;;;;;20712;6865;117189;-75
2024/01/04 05:52:36;;;;;;;0.88;0.40;;;9.70;60.20;;;;;;20488;6865;278622;-75
2024/01/04 05:55:04;;;;;;;0.97;0.40;;;9.60;60.80;;;;;;20715;6865;120899;-75
2024/01/04 05:57:28;;;;;;;0.50;0.50;;;9.60;60.80;;;;;;20711;6865;117167;-75
2024/01/04 05:59:53;;;;;;;1.30;0.80;;;9.40;61.30;;;;;;20710;6865;119846;-75
2024/01/04 06:02:19;;;;;;;1.77;0.80;;;9.10;61.80;;;;;;20686;6865;117224;-74
2024/01/04 06:04:45;;;;;;;1.50;0.88;;;8.90;62.30;;;;;;20453;6865;338957;-77
2024/01/04 06:07:11;;;;;;;1.85;0.77;;;9.40;62.00;;;;;;20457;6865;337970;-76
2024/01/04 06:09:38;;;;;;;1.08;0.60;;;9.70;61.80;;;;;;20458;6865;339808;-76
2024/01/04 06:12:03;;;;;;;1.50;0.70;;;9.70;61.20;;;;;;20433;6865;295974;-76
2024/01/04 06:14:32;;;;;;;4.23;0.80;;;9.90;60.40;;;;;;20645;6865;117360;-76
2024/01/04 06:17:00;;;;;;;1.50;0.95;;;9.80;60.40;;;;;;20443;6865;309639;-76
2024/01/04 06:19:26;;;;;;;1.30;0.80;;;9.80;60.30;;;;;;20480;6865;309457;-76
2024/01/04 06:21:51;;;;;;;0.73;0.57;;;10.00;59.10;;;;;;20706;6865;117176;-77
2024/01/04 06:24:18;;;;;;;2.10;0.80;;;9.80;60.10;;;;;;20496;6865;319239;-76
2024/01/04 06:26:43;;;;;;;3.50;0.70;;;9.80;60.10;;;;;;20696;6865;120943;-76
2024/01/04 06:29:09;;;;;;;4.30;0.90;;;9.70;60.20;;;;;;20510;6865;279319;-76
2024/01/04 06:31:35;;;;;;;2.03;0.97;;;9.70;60.20;;;;;;20717;6864;117868;-76
2024/01/04 06:34:00;;;;;;;2.97;0.90;;;9.60;60.30;;;;;;20500;6865;307740;-76
2024/01/04 06:36:26;;;;;;;3.28;0.90;;;9.70;60.20;;;;;;20473;6865;309527;-76
2024/01/04 06:38:51;;;;;;;3.07;1.00;;;9.90;59.60;;;;;;20671;6865;191155;-76
2024/01/04 06:41:17;;;;;;;2.07;0.67;;;9.80;59.60;;;;;;20717;6865;117940;-77
2024/01/04 06:43:42;;;;;;;3.05;1.00;;;9.50;60.10;;;;;;20464;6865;313826;-75
2024/01/04 06:46:08;;;;;;;1.60;1.17;;;9.50;60.10;;;;;;20704;6865;118314;-75
2024/01/04 06:48:34;;;;;;;3.00;1.05;;;9.60;60.10;;;;;;20467;6865;307838;-76
2024/01/04 06:51:01;;;;;;;2.57;1.10;;;9.50;60.00;;;;;;20787;6838;118264;-75
2024/01/04 06:53:27;;;;;;;0.93;0.80;;;9.20;60.30;;;;;;20791;6838;117371;-75
2024/01/04 06:55:54;;;;;;;2.23;0.63;;;9.00;61.00;;;;;;20707;6865;117447;-73
2024/01/04 06:58:20;;;;;;;1.00;0.67;;;8.90;60.90;;;;;;20788;6838;118406;-75
2024/01/04 07:00:45;;;;;;;1.83;0.80;;;8.80;61.50;;;;;;20510;6838;278719;-75
2024/01/04 07:03:14;;;;;;;2.47;1.00;;;9.00;61.60;;;;;;20759;6838;118427;-75
2024/01/04 07:05:41;;;;;;;2.17;0.80;;;9.00;61.40;;;;;;20700;6865;118194;-75
2024/01/04 07:08:17;;;;;;;4.47;1.10;;;8.80;62.40;;;;;;20580;6838;307332;-75
2024/01/04 07:10:44;;;;;;;2.05;1.05;;;8.90;61.60;;;;;;20510;6838;315800;-75
2024/01/04 07:13:11;;;;;;;0.97;0.87;;;9.20;60.80;;;;;;20768;6838;70523;-75
2024/01/04 07:15:36;;;;;;;2.60;0.80;;;9.10;60.80;;;;;;20602;6838;306814;-75
2024/01/04 07:18:06;;;;;;;1.65;0.95;;;9.20;61.00;;;;;;20802;6838;120062;-75
2024/01/04 07:20:36;;;;;;;1.57;0.87;;;9.20;61.10;;;;;;20797;6838;72247;-74
2024/01/04 07:23:05;;;;;;;1.27;0.90;;;8.90;61.50;;;;;;20580;6838;301560;-78
2024/01/04 07:25:34;;;;;;;1.73;0.80;;;9.10;61.60;;;;;;20806;6838;118032;-76
2024/01/04 07:27:57;;;;;;;2.27;0.90;;;9.10;61.40;;;;;;20589;6838;279224;-81
2024/01/04 07:30:23;;;;;;;1.33;0.98;;;9.40;60.20;;;;;;20510;6865;279717;-80
2024/01/04 07:32:49;;;;;;;2.03;0.70;;;9.40;60.20;;;;;;20784;6838;120245;-77
2024/01/04 07:35:16;;;;;;;2.43;1.00;;;9.30;60.10;;;;;;20576;6838;308030;-77
2024/01/04 07:37:40;;;;;;;1.43;0.90;;;9.40;60.10;;;;;;20771;6838;116948;-78
2024/01/04 07:40:07;;;;;;;1.80;0.75;;;9.30;60.30;;;;;;20617;6838;308206;-77
2024/01/04 07:42:41;;;;;;;1.57;0.80;;;9.40;60.10;;;;;;20597;6836;306969;-77
2024/01/04 07:45:12;;;;;;;1.23;1.00;;;9.60;59.40;;;;;;20789;6837;117198;-79
2024/01/04 07:47:38;;;;;;;1.20;1.10;;;9.50;59.30;;;;;;20606;6838;307740;-79
2024/01/04 07:50:04;;;;;;;3.53;3.03;;;9.50;59.40;;;;;;20741;6865;68250;-78
2024/01/04 07:52:35;;;;;;;2.03;1.42;;;9.50;59.10;;;;;;20527;6865;309390;-79
2024/01/04 07:55:03;;;;;;;2.40;2.20;;;9.60;58.80;;;;;;20806;6838;117291;-79
2024/01/04 07:57:29;;;;;;;2.07;1.10;;;9.40;58.90;;;;;;20777;6838;117576;-76
2024/01/04 07:59:55;;;;;;;2.57;2.10;;;9.20;59.30;;;;;;20586;6838;280311;-75
2024/01/04 08:02:21;;;;;;;2.17;1.60;;;9.20;59.30;;;;;;20588;6838;308071;-76
2024/01/04 08:04:47;;;;;;;3.30;2.75;;;9.40;58.60;;;;;;20563;6838;307587;-74
2024/01/04 08:07:12;;;;;;;5.10;4.32;;;9.70;58.30;;;;;;20494;6865;309057;-75
2024/01/04 08:09:39;;;;;;;3.07;1.70;;;9.90;57.80;;;;;;20575;6838;285598;-79
2024/01/04 08:12:05;;;;;;;2.10;1.70;;;10.00;56.30;;;;;;20588;6838;307199;-76
2024/01/04 08:14:33;;;;;;;2.97;1.90;;;10.10;55.80;;;;;;20804;6838;119865;-76
2024/01/04 08:16:56;;;;;;;3.20;2.10;;;9.90;57.20;;;;;;20557;6838;279010;-74
2024/01/04 08:19:22;;;;;;;2.53;2.10;;;9.90;57.50;;;;;;20652;6838;277542;-76
2024/01/04 08:21:48;;;;;;;2.10;1.63;;;9.90;57.50;;;;;;20797;6838;117222;-77
2024/01/04 08:24:15;;;;;;;3.53;2.33;;;9.90;57.50;;;;;;20788;6838;118266;-77
2024/01/04 08:26:41;;;;;;;2.07;1.23;;;9.70;58.10;;;;;;20566;6838;307143;-79
2024/01/04 08:29:06;;;;;;;5.95;5.35;;;9.60;58.00;;;;;;20584;6838;307931;-78
2024/01/04 08:31:32;;;;;;;16.47;13.83;;;9.70;58.20;;;;;;20708;6865;117564;-79
2024/01/04 08:33:58;;;;;;;2.63;1.90;;;9.70;57.50;;;;;;20791;6838;117726;-78
2024/01/04 08:36:25;;;;;;;4.40;4.00;;;9.50;58.20;;;;;;20577;6838;278104;-79
2024/01/04 08:38:51;;;;;;;2.60;2.40;;;9.50;58.40;;;;;;20691;6865;117776;-79
2024/01/04 08:41:16;;;;;;;2.50;2.30;;;9.50;58.80;;;;;;20578;6838;278481;-79
2024/01/04 08:43:43;;;;;;;4.17;3.43;;;9.70;58.80;;;;;;20582;6838;309308;-79
2024/01/04 08:46:08;;;;;;;5.22;4.78;;;10.00;57.40;;;;;;20585;6838;310154;-79
2024/01/04 08:48:35;;;;;;;4.40;4.00;;;10.60;56.60;;;;;;20568;6838;337991;-81
2024/01/04 08:51:01;;;;;;;4.85;2.60;;;10.50;55.90;;;;;;20530;6865;308155;-78
2024/01/04 08:53:27;;;;;;;2.67;1.67;;;11.00;55.50;;;;;;20570;6837;287757;-78
2024/01/04 08:55:53;;;;;;;2.40;1.60;;;10.80;55.50;;;;;;20795;6837;117159;-77
2024/01/04 08:58:19;;;;;;;7.07;3.80;;;10.60;56.20;;;;;;20793;6838;117710;-83
2024/01/04 09:00:45;;;;;;;5.43;3.10;;;10.60;56.20;;;;;;20556;6838;306520;-78
2024/01/04 09:03:10;;;;;;;3.72;1.48;;;10.50;55.90;;;;;;20792;6838;117448;-78
2024/01/04 09:05:37;;;;;;;3.70;2.00;;;10.50;56.10;;;;;;20505;6865;338235;-76
2024/01/04 09:08:09;;;;;;;1.60;1.50;;;10.50;56.00;;;;;;20792;6838;117782;-79
2024/01/04 09:10:33;;;;;;;3.73;1.97;;;10.50;56.30;;;;;;20553;6838;308231;-80
2024/01/04 09:13:00;;;;;;;2.07;1.40;;;10.70;57.00;;;;;;20708;6865;117439;-78
2024/01/04 09:15:25;;;;;;;3.10;1.10;;;10.70;56.90;;;;;;20574;6838;309787;-78
2024/01/04 09:17:54;;;;;;;2.30;1.47;;;10.90;56.30;;;;;;20585;6838;281703;-77
2024/01/04 09:20:18;;;;;;;2.25;1.50;;;11.50;53.80;;;;;;20574;6838;278183;-79
2024/01/04 09:22:44;;;;;;;2.07;1.20;;;11.50;53.80;;;;;;20765;6838;118255;-80
2024/01/04 09:25:09;;;;;;;2.57;1.60;;;11.30;53.90;;;;;;20555;6838;307118;-78
2024/01/04 09:27:35;;;;;;;1.80;1.50;;;11.30;54.00;;;;;;20800;6838;117228;-80
2024/01/04 09:30:01;;;;;;;1.03;0.93;;;11.10;54.50;;;;;;20781;6838;117798;-79
2024/01/04 09:32:28;;;;;;;3.70;1.93;;;10.90;55.30;;;;;;20568;6838;278694;-78
2024/01/04 09:34:52;;;;;;;3.87;1.70;;;10.90;55.20;;;;;;20788;6838;117151;-77
2024/01/04 09:37:18;;;;;;;2.50;1.50;;;10.90;55.50;;;;;;20557;6838;282125;-81
2024/01/04 09:39:44;;;;;;;1.93;1.20;;;11.00;55.30;;;;;;20556;6838;337609;-78
2024/01/04 09:42:10;;;;;;;1.80;1.03;;;11.20;54.50;;;;;;20758;6838;117141;-78
2024/01/04 09:44:36;;;;;;;3.33;1.70;;;11.20;54.50;;;;;;20539;6838;307588;-79
2024/01/04 09:47:01;;;;;;;4.18;1.73;;;11.20;54.10;;;;;;20785;6838;118308;-79
2024/01/04 09:49:27;;;;;;;4.00;1.10;;;11.20;54.50;;;;;;20780;6838;118277;-80
2024/01/04 09:51:54;;;;;;;3.50;1.02;;;11.00;55.00;;;;;;20777;6838;116741;-79
2024/01/04 09:54:19;;;;;;;1.67;1.00;;;10.90;55.50;;;;;;20791;6838;117315;-81
2024/01/04 09:56:51;;;;;;;3.00;1.50;;;10.70;55.80;;;;;;20557;6838;278534;-78
2024/01/04 09:59:13;;;;;;;3.37;2.17;;;10.80;55.50;;;;;;20681;6865;118718;-79
2024/01/04 10:01:40;;;;;;;2.45;2.10;;;10.60;55.80;;;;;;20782;6838;117248;-79
2024/01/04 10:04:12;;;;;;;3.90;2.00;;;10.60;55.10;;;;;;20790;6838;117761;-79
2024/01/04 10:06:41;;;;;;;4.70;2.60;;;10.40;55.70;;;;;;20775;6837;117574;-81
2024/01/04 10:09:26;;;;;;;2.55;1.62;;;10.30;56.20;;;;;;20581;6838;278014;-78
2024/01/04 10:11:56;;;;;;;4.05;2.65;;;10.90;54.70;;;;;;20548;6838;308091;-82
2024/01/04 10:14:21;;;;;;;3.17;2.10;;;10.90;54.70;;;;;;20576;6838;307872;-80
2024/01/04 10:16:50;;;;;;;2.40;1.62;;;11.20;54.10;;;;;;20463;6865;280320;-81
2024/01/04 10:19:15;;;;;;;3.58;2.40;;;11.50;53.90;;;;;;20545;6853;278675;-82
2024/01/04 10:21:41;;;;;;;1.90;1.50;;;11.80;53.50;;;;;;20533;6853;337565;-80
2024/01/04 10:24:10;;;;;;;2.97;2.63;;;12.10;53.10;;;;;;20536;6853;308203;-82
2024/01/04 10:26:34;;;;;;;2.10;1.90;;;12.40;53.00;;;;;;20729;6853;117328;-80
2024/01/04 10:29:00;;;;;;;2.55;1.55;;;12.40;53.20;;;;;;20497;6865;278811;-81
2024/01/04 10:31:26;;;;;;;4.22;1.85;;;12.40;52.00;;;;;;20475;6865;301860;-78
2024/01/04 10:33:58;;;;;;;2.62;2.10;;;12.60;51.60;;;;;;20472;6865;308407;-78
2024/01/04 10:36:28;;;;;;;1.83;1.50;;;12.70;52.60;;;;;;20722;6859;119474;-79
2024/01/04 10:38:50;;;;;;;3.23;1.50;;;12.70;52.00;;;;;;20471;6865;307542;-76
2024/01/04 10:41:18;;;;;;;2.90;1.70;;;12.80;52.10;;;;;;20535;6851;278120;-79
2024/01/04 10:43:44;;;;;;;4.10;2.03;;;12.90;51.30;;;;;;20672;6880;117523;-80
2024/01/04 10:46:10;;;;;;;1.58;1.10;;;13.00;51.90;;;;;;20549;6851;310599;-79
2024/01/04 10:48:38;;;;;;;3.42;1.40;;;13.20;51.00;;;;;;20534;6851;323598;-76
2024/01/04 10:51:10;;;;;;;1.77;1.27;;;13.20;51.00;;;;;;20745;6851;117298;-80
2024/01/04 10:53:36;;;;;;;2.20;1.60;;;13.20;51.20;;;;;;20522;6851;279751;-80
2024/01/04 10:56:05;;;;;;;2.13;1.57;;;13.20;50.90;;;;;;20439;6880;309772;-79
2024/01/04 10:58:37;;;;;;;2.72;1.67;;;13.40;50.20;;;;;;20538;6851;277999;-78
2024/01/04 11:01:02;;;;;;;2.87;1.40;;;13.50;49.20;;;;;;20670;6880;123883;-79
2024/01/04 11:03:28;;;;;;;5.07;1.60;;;13.40;49.90;;;;;;20763;6851;116213;-80
2024/01/04 11:05:54;;;;;;;3.15;1.42;;;13.20;50.60;;;;;;20670;6880;117360;-81
2024/01/04 11:08:21;;;;;;;3.73;1.50;;;12.90;51.10;;;;;;20755;6851;118445;-82
2024/01/04 11:10:46;;;;;;;3.35;1.90;;;12.80;51.70;;;;;;20519;6851;327004;-79
2024/01/04 11:13:12;;;;;;;1.92;1.50;;;12.90;50.70;;;;;;20456;6880;337293;-74
2024/01/04 11:15:37;;;;;;;3.07;2.00;;;13.10;49.10;;;;;;20540;6851;279449;-74
2024/01/04 11:18:16;;;;;;;4.35;2.10;;;13.30;48.30;;;;;;20669;6878;119941;-78
2024/01/04 11:20:58;;;;;;;3.50;1.73;;;13.10;49.10;;;;;;20092;6851;323318;-76
2024/01/04 11:23:26;;;;;;;3.03;1.70;;;13.00;48.90;;;;;;20722;6851;117415;-76
2024/01/04 11:26:21;;;;;;;5.40;3.40;;;12.90;49.70;;;;;;20710;6853;117781;-77
2024/01/04 11:28:46;;;;;;;3.47;1.98;;;12.50;50.30;;;;;;20529;6853;308132;-79
2024/01/04 11:31:12;;;;;;;2.37;1.40;;;12.50;50.30;;;;;;20669;6880;117625;-78
2024/01/04 11:33:38;;;;;;;4.50;1.50;;;12.40;50.90;;;;;;20731;6859;117182;-78
2024/01/04 11:36:03;;;;;;;4.85;2.67;;;12.20;51.80;;;;;;20496;6865;337621;-78
2024/01/04 11:38:36;;;;;;;7.20;3.83;;;12.20;52.10;;;;;;20756;6851;117800;-79
2024/01/04 11:41:04;;;;;;;3.87;3.10;;;12.30;52.30;;;;;;20719;6851;118102;-79
2024/01/04 11:43:35;;;;;;;4.13;3.43;;;12.20;52.70;;;;;;20735;6851;117262;-78
2024/01/04 11:46:01;;;;;;;1.57;1.33;;;12.00;53.10;;;;;;20717;6853;118566;-79
2024/01/04 11:48:30;;;;;;;2.93;1.47;;;11.90;53.40;;;;;;20527;6853;302421;-77
2024/01/04 11:50:55;;;;;;;2.30;1.10;;;11.90;52.80;;;;;;20642;6880;119396;-79
2024/01/04 11:53:21;;;;;;;2.50;1.43;;;11.80;52.60;;;;;;20529;6853;307723;-79
2024/01/04 11:55:47;;;;;;;1.70;1.27;;;11.80;52.80;;;;;;20747;6853;117638;-77
2024/01/04 11:58:12;;;;;;;2.83;1.50;;;11.60;53.00;;;;;;20748;6853;118520;-77
2024/01/04 12:00:38;;;;;;;3.83;2.97;;;11.20;53.70;;;;;;20507;6853;279098;-77
2024/01/04 12:03:14;;;;;;;4.50;2.47;;;11.30;55.00;;;;;;20492;6865;279021;-78
2024/01/04 12:05:46;;;;;;;5.07;2.33;;;11.30;55.10;;;;;;20613;6853;282232;-77
2024/01/04 12:08:25;;;;;;;2.07;1.30;;;11.50;54.10;;;;;;20734;6853;117581;-80
2024/01/04 12:10:54;;;;;;;2.43;1.10;;;11.30;54.30;;;;;;20687;6865;120102;-80
2024/01/04 12:13:21;;;;;;;2.70;1.60;;;11.00;55.00;;;;;;20521;6853;309084;-80
2024/01/04 12:15:47;;;;;;;2.37;1.23;;;11.00;55.60;;;;;;20739;6853;118369;-79
2024/01/04 12:18:12;;;;;;;2.10;0.90;;;11.10;55.80;;;;;;20712;6865;119419;-80
2024/01/04 12:20:38;;;;;;;4.23;1.47;;;11.00;56.10;;;;;;20727;6853;117346;-79
2024/01/04 12:23:06;;;;;;;4.30;1.85;;;10.90;56.30;;;;;;20747;6853;120000;-80
2024/01/04 12:25:29;;;;;;;2.53;1.53;;;10.90;56.50;;;;;;20522;6853;290742;-79
2024/01/04 12:27:55;;;;;;;2.80;1.80;;;11.00;55.00;;;;;;20536;6851;293185;-81
2024/01/04 12:30:21;;;;;;;3.85;2.33;;;11.40;53.80;;;;;;20526;6852;308256;-79
2024/01/04 12:32:47;;;;;;;3.40;2.10;;;11.60;51.90;;;;;;20510;6852;337367;-79
2024/01/04 12:35:15;;;;;;;2.90;2.60;;;11.80;51.30;;;;;;20753;6853;118632;-79